createdAt,value
2022-11-19T00:01:21.512Z,6.90
2022-11-19T00:03:52.337Z,6.40
2022-11-19T00:06:27.197Z,7.38
2022-11-19T00:08:54.526Z,6.95
2022-11-19T00:11:42.871Z,6.35
2022-11-19T00:14:12.740Z,6.57
2022-11-19T00:16:39.561Z,5.82
2022-11-19T00:19:06.513Z,5.38
2022-11-19T00:21:33.488Z,5.93
2022-11-19T00:24:00.363Z,6.45
2022-11-19T00:26:27.317Z,5.97
2022-11-19T00:28:54.901Z,6.15
2022-11-19T00:31:21.705Z,6.47
2022-11-19T00:33:54.455Z,6.57
2022-11-19T00:36:22.513Z,6.10
2022-11-19T00:38:49.239Z,7.35
2022-11-19T00:41:16.086Z,6.47
2022-11-19T00:43:49.289Z,8.38
2022-11-19T00:46:27.385Z,7.05
2022-11-19T00:48:56.091Z,7.32
2022-11-19T00:51:24.207Z,7.32
2022-11-19T00:53:51.481Z,6.68
2022-11-19T00:56:20.042Z,7.25
2022-11-19T00:58:47.425Z,7.32
2022-11-19T01:01:15.653Z,7.47
2022-11-19T01:03:43.128Z,7.35
2022-11-19T01:06:10.781Z,7.55
2022-11-19T01:08:39.437Z,8.20
2022-11-19T01:11:09.078Z,8.02
2022-11-19T01:13:36.270Z,9.05
2022-11-19T01:16:14.576Z,8.48
2022-11-19T01:18:42.519Z,8.27
2022-11-19T01:21:10.962Z,8.32
2022-11-19T01:23:38.690Z,8.55
2022-11-19T01:26:05.586Z,8.40
2022-11-19T01:28:32.745Z,8.40
2022-11-19T01:30:59.822Z,8.07
2022-11-19T01:33:26.782Z,7.72
2022-11-19T01:36:00.436Z,7.50
2022-11-19T01:38:28.611Z,8.30
2022-11-19T01:40:56.555Z,7.53
2022-11-19T01:43:46.716Z,7.65
2022-11-19T01:46:18.366Z,7.07
2022-11-19T01:48:59.516Z,7.07
2022-11-19T01:51:29.701Z,8.05
2022-11-19T01:54:00.154Z,8.00
2022-11-19T01:56:27.466Z,7.65
2022-11-19T01:59:01.842Z,7.57
2022-11-19T02:01:29.728Z,8.50
2022-11-19T02:04:00.731Z,7.97
2022-11-19T02:06:30.947Z,7.82
2022-11-19T02:08:57.695Z,8.55
2022-11-19T02:12:08.710Z,7.78
2022-11-19T02:14:54.830Z,8.93
2022-11-19T02:17:37.573Z,8.23
2022-11-19T02:20:32.073Z,8.05
2022-11-19T02:23:07.710Z,7.88
2022-11-19T02:26:01.607Z,7.30
2022-11-19T02:28:39.743Z,7.35
2022-11-19T02:31:12.557Z,7.40
2022-11-19T02:34:04.904Z,7.35
2022-11-19T02:36:38.438Z,7.53
2022-11-19T02:39:21.245Z,7.95
2022-11-19T02:42:05.118Z,6.95
2022-11-19T02:44:54.740Z,7.03
2022-11-19T02:47:29.436Z,6.97
2022-11-19T02:49:59.717Z,6.60
2022-11-19T02:52:27.407Z,7.22
2022-11-19T02:54:54.219Z,7.72
2022-11-19T02:57:21.643Z,8.80
2022-11-19T03:00:18.045Z,7.32
2022-11-19T03:03:32.829Z,7.15
2022-11-19T03:06:02.818Z,6.95
2022-11-19T03:08:29.556Z,7.25
2022-11-19T03:11:04.763Z,7.18
2022-11-19T03:13:58.640Z,6.72
2022-11-19T03:16:42.150Z,6.50
2022-11-19T03:19:14.618Z,7.10
2022-11-19T03:21:55.418Z,7.30
2022-11-19T03:24:44.073Z,7.03
2022-11-19T03:27:20.750Z,6.18
2022-11-19T03:29:50.072Z,6.10
2022-11-19T03:32:20.192Z,5.85
2022-11-19T03:34:48.819Z,5.60
2022-11-19T03:37:18.738Z,5.78
2022-11-19T03:39:46.012Z,6.28
2022-11-19T03:42:13.546Z,6.60
2022-11-19T03:44:47.000Z,6.15
2022-11-19T03:47:19.718Z,5.80
2022-11-19T03:49:50.775Z,5.78
2022-11-19T03:52:21.267Z,6.30
2022-11-19T03:54:48.038Z,6.60
2022-11-19T03:57:17.704Z,7.32
2022-11-19T03:59:45.277Z,6.18
2022-11-19T04:02:12.652Z,5.97
2022-11-19T04:04:39.596Z,6.72
2022-11-19T04:07:12.274Z,7.20
2022-11-19T04:09:42.818Z,6.88
2022-11-19T04:12:15.903Z,6.45
2022-11-19T04:14:42.700Z,6.50
2022-11-19T04:17:10.000Z,6.65
2022-11-19T04:19:37.125Z,7.72
2022-11-19T04:22:03.888Z,6.40
2022-11-19T04:24:30.646Z,7.57
2022-11-19T04:26:57.558Z,7.18
2022-11-19T04:29:24.340Z,6.55
2022-11-19T04:31:51.153Z,6.93
2022-11-19T04:34:17.947Z,6.93
2022-11-19T04:36:45.004Z,6.07
2022-11-19T04:39:12.737Z,7.07
2022-11-19T04:41:40.430Z,6.32
2022-11-19T04:44:10.273Z,6.75
2022-11-19T04:46:37.207Z,5.25
2022-11-19T04:49:04.248Z,5.75
2022-11-19T04:51:30.990Z,6.05
2022-11-19T04:53:57.877Z,5.00
2022-11-19T04:56:24.934Z,5.93
2022-11-19T04:58:51.717Z,6.30
2022-11-19T05:01:20.773Z,6.13
2022-11-19T05:03:51.272Z,5.82
2022-11-19T05:06:18.424Z,5.95
2022-11-19T05:08:45.296Z,5.55
2022-11-19T05:11:12.258Z,6.10
2022-11-19T05:13:39.169Z,5.85
2022-11-19T05:16:08.385Z,5.97
2022-11-19T05:18:35.337Z,6.00
2022-11-19T05:21:02.032Z,5.45
2022-11-19T05:23:28.868Z,5.97
2022-11-19T05:25:55.727Z,6.05
2022-11-19T05:28:37.530Z,5.05
2022-11-19T05:31:05.875Z,5.18
2022-11-19T05:33:34.179Z,5.57
2022-11-19T05:36:01.871Z,5.47
2022-11-19T05:38:29.047Z,5.20
2022-11-19T05:40:55.965Z,6.28
2022-11-19T05:43:22.915Z,5.65
2022-11-19T05:45:49.968Z,5.60
2022-11-19T05:48:16.714Z,5.43
2022-11-19T05:50:43.540Z,5.25
2022-11-19T05:53:10.483Z,5.20
2022-11-19T05:55:37.353Z,4.80
2022-11-19T05:58:04.174Z,4.95
2022-11-19T06:00:31.177Z,5.00
2022-11-19T06:02:58.259Z,5.20
2022-11-19T06:05:25.204Z,5.72
2022-11-19T06:07:52.477Z,4.72
2022-11-19T06:10:19.310Z,4.65
2022-11-19T06:12:46.865Z,5.18
2022-11-19T06:15:14.421Z,4.43
2022-11-19T06:17:41.467Z,5.70
2022-11-19T06:20:11.476Z,5.28
2022-11-19T06:22:38.736Z,4.90
2022-11-19T06:25:06.394Z,4.88
2022-11-19T06:27:33.356Z,4.72
2022-11-19T06:30:02.353Z,4.68
2022-11-19T06:32:29.178Z,4.68
2022-11-19T06:34:55.949Z,4.70
2022-11-19T06:37:22.747Z,4.57
2022-11-19T06:39:49.525Z,4.72
2022-11-19T06:42:34.588Z,4.40
2022-11-19T06:45:01.361Z,5.20
2022-11-19T06:47:31.143Z,4.38
2022-11-19T06:49:58.303Z,5.45
2022-11-19T06:52:31.567Z,4.80
2022-11-19T06:54:58.318Z,4.82
2022-11-19T06:57:25.446Z,5.40
2022-11-19T06:59:54.922Z,4.80
2022-11-19T07:02:23.263Z,6.25
2022-11-19T07:04:50.070Z,4.70
2022-11-19T07:07:16.933Z,5.40
2022-11-19T07:09:43.853Z,5.25
2022-11-19T07:12:10.711Z,5.22
2022-11-19T07:14:40.649Z,5.13
2022-11-19T07:17:07.610Z,4.55
2022-11-19T07:19:34.465Z,5.10
2022-11-19T07:22:01.646Z,4.78
2022-11-19T07:24:28.813Z,4.85
2022-11-19T07:26:59.089Z,4.40
2022-11-19T07:29:25.891Z,4.70
2022-11-19T07:31:53.757Z,4.53
2022-11-19T07:34:21.440Z,4.28
2022-11-19T07:36:49.566Z,4.20
2022-11-19T07:39:17.903Z,4.53
2022-11-19T07:42:03.555Z,4.47
2022-11-19T07:44:30.581Z,5.20
2022-11-19T07:46:57.630Z,4.80
2022-11-19T07:49:26.624Z,5.40
2022-11-19T07:51:54.436Z,4.65
2022-11-19T07:54:21.345Z,5.30
2022-11-19T07:56:48.040Z,5.25
2022-11-19T07:59:14.921Z,4.20
2022-11-19T08:01:42.822Z,4.75
2022-11-19T08:04:09.950Z,4.43
2022-11-19T08:06:37.585Z,4.30
2022-11-19T08:09:05.248Z,4.18
2022-11-19T08:11:32.773Z,4.18
2022-11-19T08:14:03.080Z,3.90
2022-11-19T08:16:52.607Z,4.43
2022-11-19T08:19:20.090Z,4.35
2022-11-19T08:21:48.384Z,4.40
2022-11-19T08:24:17.952Z,3.53
2022-11-19T08:26:46.233Z,5.20
2022-11-19T08:29:16.640Z,4.55
2022-11-19T08:31:45.534Z,5.03
2022-11-19T08:34:12.489Z,4.30
2022-11-19T08:36:39.327Z,4.15
2022-11-19T08:39:07.001Z,4.40
2022-11-19T08:41:52.803Z,4.22
2022-11-19T08:44:20.059Z,3.90
2022-11-19T08:46:47.113Z,3.70
2022-11-19T08:49:15.034Z,4.68
2022-11-19T08:51:45.073Z,4.35
2022-11-19T08:54:13.555Z,3.35
2022-11-19T08:56:40.600Z,3.65
2022-11-19T08:59:07.425Z,3.60
2022-11-19T09:01:34.095Z,3.90
2022-11-19T09:04:00.809Z,4.40
2022-11-19T09:06:27.616Z,3.63
2022-11-19T09:08:54.449Z,3.80
2022-11-19T09:11:22.060Z,3.13
2022-11-19T09:13:48.814Z,4.40
2022-11-19T09:16:15.937Z,3.95
2022-11-19T09:18:42.980Z,3.85
2022-11-19T09:21:11.717Z,3.60
2022-11-19T09:23:38.870Z,3.65
2022-11-19T09:26:12.533Z,3.53
2022-11-19T09:28:39.174Z,4.25
2022-11-19T09:31:11.218Z,4.07
2022-11-19T09:33:39.456Z,3.92
2022-11-19T09:36:06.444Z,3.63
2022-11-19T09:38:35.242Z,3.17
2022-11-19T09:41:12.020Z,3.15
2022-11-19T09:43:53.906Z,3.25
2022-11-19T09:46:39.963Z,3.13
2022-11-19T09:49:12.510Z,3.05
2022-11-19T09:51:42.750Z,2.85
2022-11-19T09:54:18.046Z,3.33
2022-11-19T09:56:46.472Z,2.83
2022-11-19T09:59:28.492Z,3.22
2022-11-19T10:01:55.767Z,2.90
2022-11-19T10:04:24.972Z,2.78
2022-11-19T10:07:28.626Z,2.80
2022-11-19T10:10:09.168Z,3.00
2022-11-19T10:12:41.703Z,2.35
2022-11-19T10:15:37.242Z,2.83
2022-11-19T10:18:04.580Z,2.95
2022-11-19T10:20:40.361Z,2.95
2022-11-19T10:23:21.089Z,2.80
2022-11-19T10:25:50.039Z,2.55
2022-11-19T10:28:22.820Z,2.25
2022-11-19T10:30:56.567Z,2.22
2022-11-19T10:33:40.717Z,2.80
2022-11-19T10:36:16.134Z,2.72
2022-11-19T10:39:10.148Z,2.72
2022-11-19T10:41:45.810Z,2.65
2022-11-19T10:44:42.743Z,2.83
2022-11-19T10:47:22.596Z,2.60
2022-11-19T10:49:54.470Z,2.58
2022-11-19T10:52:40.587Z,2.35
2022-11-19T10:55:18.425Z,2.90
2022-11-19T10:57:46.715Z,2.95
2022-11-19T11:00:14.110Z,3.22
2022-11-19T11:02:50.136Z,3.20
2022-11-19T11:05:19.160Z,2.70
2022-11-19T11:07:51.333Z,3.22
2022-11-19T11:10:28.488Z,3.38
2022-11-19T11:13:16.726Z,3.58
2022-11-19T11:15:48.494Z,3.15
2022-11-19T11:18:15.525Z,2.97
2022-11-19T11:20:50.356Z,3.10
2022-11-19T11:23:19.447Z,3.72
2022-11-19T11:26:06.956Z,3.33
2022-11-19T11:28:34.479Z,3.78
2022-11-19T11:31:04.143Z,3.10
2022-11-19T11:33:40.021Z,3.72
2022-11-19T11:36:09.624Z,3.78
2022-11-19T11:38:45.035Z,3.33
2022-11-19T11:44:15.987Z,3.22
2022-11-19T11:46:45.795Z,3.80
2022-11-19T11:49:23.185Z,3.45
2022-11-19T11:52:19.829Z,3.92
2022-11-19T11:55:04.311Z,3.80
2022-11-19T11:57:36.284Z,2.95
2022-11-19T12:00:30.640Z,3.80
2022-11-19T12:03:03.964Z,3.67
2022-11-19T12:06:04.564Z,3.53
2022-11-19T12:08:37.276Z,3.70
2022-11-19T12:11:25.409Z,3.92
2022-11-19T12:14:08.136Z,3.38
2022-11-19T12:16:51.126Z,3.45
2022-11-19T12:19:18.941Z,3.80
2022-11-19T12:21:51.475Z,3.38
2022-11-19T12:24:42.888Z,4.28
2022-11-19T12:27:25.113Z,3.83
2022-11-19T12:29:57.991Z,3.72
2022-11-19T12:32:52.891Z,3.90
2022-11-19T12:35:47.928Z,3.47
2022-11-19T12:38:39.286Z,3.63
2022-11-19T12:41:33.239Z,3.65
2022-11-19T12:44:02.291Z,3.88
2022-11-19T12:46:51.584Z,4.40
2022-11-19T12:49:45.833Z,3.78
2022-11-19T12:52:30.596Z,4.20
2022-11-19T12:55:16.255Z,4.07
2022-11-19T12:57:57.531Z,4.43
2022-11-19T13:00:26.678Z,4.03
2022-11-19T13:03:16.106Z,4.10
2022-11-19T13:05:58.768Z,4.30
2022-11-19T13:08:33.287Z,3.90
2022-11-19T13:11:09.759Z,3.92
2022-11-19T13:13:39.273Z,3.85
2022-11-19T13:16:16.254Z,4.20
2022-11-19T13:18:47.440Z,3.65
2022-11-19T13:21:22.126Z,3.78
2022-11-19T13:23:50.997Z,4.18
2022-11-19T13:26:33.272Z,4.00
2022-11-19T13:29:21.935Z,4.68
2022-11-19T13:31:55.925Z,4.30
2022-11-19T13:34:27.242Z,5.53
2022-11-19T13:37:13.325Z,4.63
2022-11-19T13:39:43.863Z,4.47
2022-11-19T13:42:29.679Z,4.40
2022-11-19T13:44:57.069Z,4.75
2022-11-19T13:47:27.081Z,4.45
2022-11-19T13:49:59.110Z,5.43
2022-11-19T13:52:30.199Z,5.20
2022-11-19T13:54:58.842Z,5.57
2022-11-19T13:57:33.116Z,5.20
2022-11-19T14:00:06.945Z,4.80
2022-11-19T14:02:38.865Z,5.43
2022-11-19T14:05:46.108Z,5.32
2022-11-19T14:08:31.260Z,4.93
2022-11-19T14:11:00.902Z,4.25
2022-11-19T14:14:02.955Z,4.20
2022-11-19T14:17:11.344Z,4.82
2022-11-19T14:20:14.609Z,5.43
2022-11-19T14:23:01.908Z,4.72
2022-11-19T14:26:07.301Z,5.03
2022-11-19T14:28:49.608Z,5.00
2022-11-19T14:31:17.831Z,4.47
2022-11-19T14:33:47.606Z,5.22
2022-11-19T14:36:21.061Z,4.65
2022-11-19T14:39:14.231Z,5.35
2022-11-19T14:41:44.238Z,4.70
2022-11-19T14:44:25.235Z,5.03
2022-11-19T14:46:52.238Z,4.90
2022-11-19T14:49:25.773Z,4.20
2022-11-19T14:51:58.682Z,4.82
2022-11-19T14:54:42.794Z,5.35
2022-11-19T14:57:33.408Z,4.88
2022-11-19T15:00:04.193Z,5.72
2022-11-19T15:02:46.386Z,4.82
2022-11-19T15:05:12.984Z,4.65
2022-11-19T15:07:44.068Z,4.53
2022-11-19T15:10:26.536Z,5.88
2022-11-19T15:13:05.708Z,4.75
2022-11-19T15:15:38.875Z,4.97
2022-11-19T15:18:22.121Z,4.60
2022-11-19T15:21:05.351Z,5.18
2022-11-19T15:23:56.523Z,4.95
2022-11-19T15:26:40.715Z,4.90
2022-11-19T15:29:38.178Z,4.38
2022-11-19T15:32:23.711Z,4.88
2022-11-19T15:35:10.728Z,5.15
2022-11-19T15:38:22.155Z,4.82
2022-11-19T15:40:52.731Z,5.18
2022-11-19T15:43:22.594Z,5.25
2022-11-19T15:46:04.709Z,5.45
2022-11-19T15:48:36.154Z,6.03
2022-11-19T15:51:03.713Z,4.70
2022-11-19T15:53:30.446Z,4.55
2022-11-19T15:56:00.688Z,4.82
2022-11-19T15:58:40.064Z,4.68
2022-11-19T16:01:09.878Z,5.93
2022-11-19T16:03:39.786Z,6.07
2022-11-19T16:06:16.106Z,5.00
2022-11-19T16:08:45.388Z,5.03
2022-11-19T16:11:38.379Z,5.68
2022-11-19T16:14:38.582Z,5.30
2022-11-19T16:17:43.129Z,5.82
2022-11-19T16:20:10.762Z,4.75
2022-11-19T16:22:52.826Z,5.68
2022-11-19T16:25:31.946Z,4.82
2022-11-19T16:28:01.620Z,5.15
2022-11-19T16:30:29.776Z,5.60
2022-11-19T16:32:58.417Z,4.55
2022-11-19T16:35:30.658Z,6.22
2022-11-19T16:37:59.372Z,6.45
2022-11-19T16:40:27.309Z,5.80
2022-11-19T16:42:56.881Z,5.70
2022-11-19T16:45:26.108Z,6.18
2022-11-19T16:47:58.692Z,6.13
2022-11-19T16:50:43.760Z,5.45
2022-11-19T16:53:45.893Z,5.38
2022-11-19T16:56:16.785Z,5.10
2022-11-19T16:58:45.793Z,5.25
2022-11-19T17:01:12.523Z,5.78
2022-11-19T17:03:40.961Z,5.28
2022-11-19T17:06:09.161Z,5.38
2022-11-19T17:08:37.989Z,5.75
2022-11-19T17:11:35.506Z,5.32
2022-11-19T17:14:24.341Z,5.00
2022-11-19T17:16:53.755Z,5.03
2022-11-19T17:19:36.830Z,5.78
2022-11-19T17:22:05.544Z,4.85
2022-11-19T17:24:37.098Z,5.40
2022-11-19T17:27:04.114Z,4.93
2022-11-19T17:29:31.290Z,5.72
2022-11-19T17:31:58.255Z,5.70
2022-11-19T17:34:33.352Z,5.38
2022-11-19T17:37:00.318Z,5.45
2022-11-19T17:39:27.239Z,5.85
2022-11-19T17:42:15.828Z,6.22
2022-11-19T17:44:42.792Z,5.43
2022-11-19T17:47:23.198Z,5.55
2022-11-19T17:49:52.006Z,5.88
2022-11-19T17:52:25.372Z,4.97
2022-11-19T17:54:54.259Z,5.18
2022-11-19T17:57:21.105Z,5.95
2022-11-19T17:59:49.369Z,5.35
2022-11-19T18:02:18.826Z,5.40
2022-11-19T18:04:46.663Z,5.90
2022-11-19T18:07:14.084Z,5.82
2022-11-19T18:09:40.938Z,6.03
2022-11-19T18:12:13.686Z,5.68
2022-11-19T18:14:40.333Z,5.40
2022-11-19T18:17:07.214Z,5.35
2022-11-19T18:19:34.230Z,6.05
2022-11-19T18:22:01.132Z,5.88
2022-11-19T18:24:27.812Z,6.07
2022-11-19T18:26:54.720Z,5.85
2022-11-19T18:29:21.589Z,6.43
2022-11-19T18:31:50.940Z,5.72
2022-11-19T18:34:24.589Z,6.45
2022-11-19T18:36:51.401Z,6.50
2022-11-19T18:39:18.256Z,5.70
2022-11-19T18:41:45.080Z,5.97
2022-11-19T18:44:35.148Z,6.22
2022-11-19T18:47:10.781Z,6.85
2022-11-19T18:49:37.974Z,7.05
2022-11-19T18:52:06.799Z,6.50
2022-11-19T18:54:34.036Z,6.43
2022-11-19T18:57:00.930Z,7.25
2022-11-19T18:59:27.933Z,5.75
2022-11-19T19:01:56.167Z,6.68
2022-11-19T19:04:23.397Z,6.78
2022-11-19T19:06:50.440Z,6.43
2022-11-19T19:09:20.848Z,6.68
2022-11-19T19:12:11.398Z,6.15
2022-11-19T19:14:39.230Z,6.45
2022-11-19T19:17:09.093Z,6.72
2022-11-19T19:19:35.946Z,6.82
2022-11-19T19:22:02.781Z,6.60
2022-11-19T19:24:30.663Z,7.90
2022-11-19T19:26:57.497Z,7.00
2022-11-19T19:29:24.683Z,6.53
2022-11-19T19:31:52.376Z,6.38
2022-11-19T19:34:19.834Z,7.13
2022-11-19T19:36:52.740Z,6.35
2022-11-19T19:39:20.516Z,7.18
2022-11-19T19:41:49.244Z,5.50
2022-11-19T19:44:16.292Z,6.65
2022-11-19T19:46:43.027Z,6.45
2022-11-19T19:49:09.804Z,6.68
2022-11-19T19:51:36.470Z,7.32
2022-11-19T19:54:05.726Z,7.25
2022-11-19T19:56:33.095Z,6.80
2022-11-19T19:59:00.936Z,7.38
2022-11-19T20:01:31.282Z,6.88
2022-11-19T20:04:15.656Z,7.43
2022-11-19T20:06:45.705Z,7.30
2022-11-19T20:09:12.973Z,7.90
2022-11-19T20:11:39.994Z,10.07
2022-11-19T20:14:07.039Z,11.00
2022-11-19T20:16:35.226Z,10.93
2022-11-19T20:19:02.236Z,8.32
2022-11-19T20:21:36.317Z,7.20
2022-11-19T20:24:08.757Z,10.48
2022-11-19T20:26:39.099Z,7.65
2022-11-19T20:29:06.530Z,8.32
2022-11-19T20:31:34.681Z,8.32
2022-11-19T20:34:03.659Z,8.20
2022-11-19T20:36:32.121Z,9.25
2022-11-19T20:38:59.162Z,7.38
2022-11-19T20:41:46.085Z,8.10
2022-11-19T20:44:26.355Z,10.45
2022-11-19T20:47:00.884Z,10.65
2022-11-19T20:49:36.332Z,7.85
2022-11-19T20:52:03.977Z,7.20
2022-11-19T20:54:31.042Z,6.82
2022-11-19T20:56:58.570Z,7.10
2022-11-19T20:59:26.560Z,7.07
2022-11-19T21:01:55.810Z,7.13
2022-11-19T21:04:24.156Z,6.93
2022-11-19T21:06:51.789Z,7.35
2022-11-19T21:09:20.319Z,7.20
2022-11-19T21:11:47.723Z,7.32
2022-11-19T21:14:14.882Z,7.20
2022-11-19T21:16:42.665Z,7.40
2022-11-19T21:19:13.090Z,7.05
2022-11-19T21:21:40.012Z,7.32
2022-11-19T21:24:07.555Z,7.22
2022-11-19T21:26:34.605Z,8.00
2022-11-19T21:29:01.781Z,7.38
2022-11-19T21:31:40.281Z,8.25
2022-11-19T21:34:12.705Z,8.00
2022-11-19T21:36:40.677Z,7.50
2022-11-19T21:39:08.579Z,7.35
2022-11-19T21:41:37.422Z,7.57
2022-11-19T21:44:05.468Z,7.88
2022-11-19T21:46:35.485Z,7.82
2022-11-19T21:49:04.429Z,7.90
2022-11-19T21:51:31.286Z,6.68
2022-11-19T21:54:00.081Z,8.27
2022-11-19T21:56:28.051Z,7.88
2022-11-19T21:58:57.339Z,7.68
2022-11-19T22:01:24.537Z,8.48
2022-11-19T22:03:53.588Z,7.47
2022-11-19T22:06:21.453Z,7.65
2022-11-19T22:08:49.632Z,7.25
2022-11-19T22:11:32.154Z,7.93
2022-11-19T22:14:06.984Z,7.95
2022-11-19T22:16:38.633Z,7.88
2022-11-19T22:19:06.180Z,7.43
2022-11-19T22:21:33.345Z,7.65
2022-11-19T22:24:00.375Z,8.68
2022-11-19T22:26:27.229Z,7.43
2022-11-19T22:28:54.297Z,8.05
2022-11-19T22:31:21.014Z,8.55
2022-11-19T22:33:52.206Z,8.80
2022-11-19T22:36:20.145Z,9.27
2022-11-19T22:38:46.890Z,8.63
2022-11-19T22:41:15.695Z,8.82
2022-11-19T22:43:45.763Z,8.07
2022-11-19T22:46:13.553Z,8.20
2022-11-19T22:48:40.347Z,8.25
2022-11-19T22:51:09.686Z,7.68
2022-11-19T22:53:37.183Z,7.68
2022-11-19T22:56:05.761Z,7.90
2022-11-19T22:58:33.313Z,8.27
2022-11-19T23:01:00.254Z,8.45
2022-11-19T23:03:30.233Z,7.93
2022-11-19T23:05:57.298Z,8.75
2022-11-19T23:08:24.064Z,8.27
2022-11-19T23:11:00.694Z,8.55
2022-11-19T23:13:32.743Z,8.18
2022-11-19T23:16:02.432Z,8.38
2022-11-19T23:18:30.338Z,8.68
2022-11-19T23:20:58.572Z,9.35
2022-11-19T23:23:25.276Z,9.48
2022-11-19T23:25:59.048Z,8.52
2022-11-19T23:28:29.576Z,7.43
2022-11-19T23:30:56.393Z,8.55
2022-11-19T23:33:23.778Z,7.80
2022-11-19T23:35:50.619Z,8.02
2022-11-19T23:38:17.702Z,7.63
2022-11-19T23:40:44.824Z,8.15
2022-11-19T23:43:11.998Z,8.38
2022-11-19T23:45:39.052Z,7.97
2022-11-19T23:48:06.002Z,8.35
2022-11-19T23:50:32.811Z,7.05
2022-11-19T23:52:59.649Z,7.90
2022-11-19T23:55:26.494Z,8.02
2022-11-19T23:57:53.365Z,8.02
